EmailTwitter


Surface observations / France / LFMP (07747)

Regions: Quebec | Canada | USA | Europe | France | UK | Elsewhere
Station
Display
Info & Location for LFMP (07747) | Help decoding METAR

Weather Conditions observed on 2019/01/17 at 21:30 UTC at PERPIGNAN/RIVESA, FR (LFMP)

Sky conditions: few clouds.

Temperature: 9.0 Celsius.

Dewpoint: 3.0 Celsius.

Relative Humidity: 66%

Windchill Factor: 6.

Winds: Northwest at 24 km/h or 13 knots.

Mean Sea level Pressure: 101.80 kilopascals.

Horizontal visibility: 6.21 statute miles or 9.94 kilometers.

Coded METAR:

LFMP 172130Z AUTO 32013KT 9999 FEW035/// 09/03 Q1018 TEMPO 34015G25KT SHRA

BKN020TCU=